sensor_id;sensor_type;location;lat;lon;timestamp;pressure;altitude;pressure_sealevel;temperature;humidity
1401;BME280;46518;48.842;8.926;2023-07-31T00:01:06;97160.75;;;17.73;66.74
1401;BME280;46518;48.842;8.926;2023-07-31T00:03:34;97166.94;;;17.68;66.86
1401;BME280;46518;48.842;8.926;2023-07-31T00:06:02;97163.88;;;17.61;66.66
1401;BME280;46518;48.842;8.926;2023-07-31T00:08:32;97169.25;;;17.56;66.93
1401;BME280;46518;48.842;8.926;2023-07-31T00:11:00;97171.06;;;17.61;66.85
1401;BME280;46518;48.842;8.926;2023-07-31T00:13:28;97171.78;;;17.48;66.95
1401;BME280;46518;48.842;8.926;2023-07-31T00:15:56;97156.97;;;17.41;67.07
1401;BME280;46518;48.842;8.926;2023-07-31T00:18:24;97163.88;;;17.42;67.20
1401;BME280;46518;48.842;8.926;2023-07-31T00:20:52;97159.94;;;17.40;67.53
1401;BME280;46518;48.842;8.926;2023-07-31T00:23:20;97160.63;;;17.27;67.80
1401;BME280;46518;48.842;8.926;2023-07-31T00:25:49;97167.75;;;17.31;67.83
1401;BME280;46518;48.842;8.926;2023-07-31T00:28:17;97160.56;;;17.32;67.93
1401;BME280;46518;48.842;8.926;2023-07-31T00:30:45;97173.66;;;17.28;67.79
1401;BME280;46518;48.842;8.926;2023-07-31T00:33:13;97175.53;;;17.28;68.04
1401;BME280;46518;48.842;8.926;2023-07-31T00:35:42;97175.53;;;17.28;68.29
1401;BME280;46518;48.842;8.926;2023-07-31T00:38:10;97167.31;;;17.24;68.48
1401;BME280;46518;48.842;8.926;2023-07-31T00:40:39;97162.38;;;17.17;69.10
1401;BME280;46518;48.842;8.926;2023-07-31T00:43:08;97172.63;;;17.24;68.79
1401;BME280;46518;48.842;8.926;2023-07-31T00:45:36;97167.97;;;17.16;68.94
1401;BME280;46518;48.842;8.926;2023-07-31T00:48:05;97158.44;;;17.10;68.96
1401;BME280;46518;48.842;8.926;2023-07-31T00:50:34;97169.22;;;16.99;69.52
1401;BME280;46518;48.842;8.926;2023-07-31T00:53:02;97157.53;;;17.00;69.70
1401;BME280;46518;48.842;8.926;2023-07-31T00:55:32;97159.69;;;16.98;70.03
1401;BME280;46518;48.842;8.926;2023-07-31T00:58:01;97161.63;;;16.93;69.96
1401;BME280;46518;48.842;8.926;2023-07-31T01:00:30;97150.69;;;16.94;69.96
1401;BME280;46518;48.842;8.926;2023-07-31T01:02:59;97162.13;;;16.95;70.20
1401;BME280;46518;48.842;8.926;2023-07-31T01:05:35;97157.88;;;16.94;70.46
1401;BME280;46518;48.842;8.926;2023-07-31T01:08:08;97153.63;;;16.93;70.33
1401;BME280;46518;48.842;8.926;2023-07-31T01:10:46;97147.16;;;16.80;70.58
1401;BME280;46518;48.842;8.926;2023-07-31T01:13:15;97151.03;;;16.88;70.59
1401;BME280;46518;48.842;8.926;2023-07-31T01:15:44;97142.03;;;16.84;70.43
1401;BME280;46518;48.842;8.926;2023-07-31T01:18:12;97137.88;;;16.72;70.80
1401;BME280;46518;48.842;8.926;2023-07-31T01:20:42;97131.50;;;16.73;70.78
1401;BME280;46518;48.842;8.926;2023-07-31T01:23:31;97134.84;;;16.84;70.41
1401;BME280;46518;48.842;8.926;2023-07-31T01:26:09;97134.59;;;16.86;69.82
1401;BME280;46518;48.842;8.926;2023-07-31T01:28:48;97134.13;;;16.78;69.64
1401;BME280;46518;48.842;8.926;2023-07-31T01:31:20;97126.09;;;16.84;69.41
1401;BME280;46518;48.842;8.926;2023-07-31T01:33:53;97132.97;;;16.85;69.47
1401;BME280;46518;48.842;8.926;2023-07-31T01:36:22;97142.03;;;16.84;69.86
1401;BME280;46518;48.842;8.926;2023-07-31T01:38:51;97122.25;;;16.95;69.40
1401;BME280;46518;48.842;8.926;2023-07-31T01:41:20;97126.97;;;16.98;69.25
1401;BME280;46518;48.842;8.926;2023-07-31T01:43:48;97120.81;;;17.02;69.16
1401;BME280;46518;48.842;8.926;2023-07-31T01:46:16;97126.34;;;17.06;69.33
1401;BME280;46518;48.842;8.926;2023-07-31T01:48:45;97126.19;;;16.97;69.47
1401;BME280;46518;48.842;8.926;2023-07-31T01:51:13;97117.47;;;16.92;70.18
1401;BME280;46518;48.842;8.926;2023-07-31T01:53:41;97114.41;;;17.03;69.82
1401;BME280;46518;48.842;8.926;2023-07-31T01:56:09;97112.84;;;17.02;69.59
1401;BME280;46518;48.842;8.926;2023-07-31T01:58:39;97101.69;;;17.00;69.18
1401;BME280;46518;48.842;8.926;2023-07-31T02:01:07;97100.59;;;17.01;69.24
1401;BME280;46518;48.842;8.926;2023-07-31T02:03:35;97109.88;;;17.04;69.30
1401;BME280;46518;48.842;8.926;2023-07-31T02:06:04;97108.31;;;17.03;69.62
1401;BME280;46518;48.842;8.926;2023-07-31T02:08:32;97099.31;;;16.99;69.62
1401;BME280;46518;48.842;8.926;2023-07-31T02:11:00;97109.50;;;16.92;69.88
1401;BME280;46518;48.842;8.926;2023-07-31T02:13:30;97104.19;;;16.92;69.72
1401;BME280;46518;48.842;8.926;2023-07-31T02:16:00;97101.97;;;16.80;70.45
1401;BME280;46518;48.842;8.926;2023-07-31T02:18:28;97097.22;;;16.72;70.64
1401;BME280;46518;48.842;8.926;2023-07-31T02:20:56;97088.41;;;16.76;70.49
1401;BME280;46518;48.842;8.926;2023-07-31T02:23:25;97084.31;;;16.65;70.41
1401;BME280;46518;48.842;8.926;2023-07-31T02:25:53;97081.03;;;16.49;70.14
1401;BME280;46518;48.842;8.926;2023-07-31T02:28:22;97083.59;;;16.35;71.09
1401;BME280;46518;48.842;8.926;2023-07-31T02:30:51;97072.72;;;16.32;70.68
1401;BME280;46518;48.842;8.926;2023-07-31T02:33:21;97063.28;;;16.45;70.56
1401;BME280;46518;48.842;8.926;2023-07-31T02:35:49;97070.72;;;16.48;70.18
1401;BME280;46518;48.842;8.926;2023-07-31T02:38:17;97061.78;;;16.38;69.83
1401;BME280;46518;48.842;8.926;2023-07-31T02:40:45;97061.44;;;16.45;69.86
1401;BME280;46518;48.842;8.926;2023-07-31T02:43:16;97065.84;;;16.55;69.41
1401;BME280;46518;48.842;8.926;2023-07-31T02:45:44;97072.59;;;16.66;69.14
1401;BME280;46518;48.842;8.926;2023-07-31T02:48:12;97066.00;;;16.64;68.45
1401;BME280;46518;48.842;8.926;2023-07-31T02:50:42;97065.53;;;16.56;68.69
1401;BME280;46518;48.842;8.926;2023-07-31T02:53:10;97052.56;;;16.55;68.49
1401;BME280;46518;48.842;8.926;2023-07-31T02:55:38;97059.72;;;16.54;68.97
1401;BME280;46518;48.842;8.926;2023-07-31T02:58:06;97065.78;;;16.60;69.03
1401;BME280;46518;48.842;8.926;2023-07-31T03:00:34;97067.56;;;16.65;69.13
1401;BME280;46518;48.842;8.926;2023-07-31T03:03:03;97063.78;;;16.71;69.24
1401;BME280;46518;48.842;8.926;2023-07-31T03:05:31;97071.38;;;16.34;70.09
1401;BME280;46518;48.842;8.926;2023-07-31T03:08:01;97073.03;;;16.30;71.37
1401;BME280;46518;48.842;8.926;2023-07-31T03:10:29;97064.81;;;16.27;71.91
1401;BME280;46518;48.842;8.926;2023-07-31T03:12:58;97064.38;;;16.20;72.80
1401;BME280;46518;48.842;8.926;2023-07-31T03:15:26;97069.63;;;16.25;72.90
1401;BME280;46518;48.842;8.926;2023-07-31T03:17:54;97064.50;;;16.33;72.73
1401;BME280;46518;48.842;8.926;2023-07-31T03:20:22;97070.03;;;16.37;72.45
1401;BME280;46518;48.842;8.926;2023-07-31T03:22:50;97066.56;;;16.36;72.00
1401;BME280;46518;48.842;8.926;2023-07-31T03:25:20;97066.63;;;16.31;71.75
1401;BME280;46518;48.842;8.926;2023-07-31T03:27:50;97067.78;;;16.25;71.91
1401;BME280;46518;48.842;8.926;2023-07-31T03:30:18;97066.81;;;16.40;71.80
1401;BME280;46518;48.842;8.926;2023-07-31T03:32:47;97068.13;;;16.43;71.55
1401;BME280;46518;48.842;8.926;2023-07-31T03:35:15;97043.81;;;16.30;71.73
1401;BME280;46518;48.842;8.926;2023-07-31T03:37:43;97071.31;;;16.39;71.58
1401;BME280;46518;48.842;8.926;2023-07-31T03:40:11;97073.56;;;16.27;71.67
1401;BME280;46518;48.842;8.926;2023-07-31T03:42:41;97081.47;;;16.32;71.92
1401;BME280;46518;48.842;8.926;2023-07-31T03:45:10;97077.69;;;16.14;72.47
1401;BME280;46518;48.842;8.926;2023-07-31T03:47:38;97080.25;;;16.25;72.55
1401;BME280;46518;48.842;8.926;2023-07-31T03:50:07;97075.13;;;16.33;72.45
1401;BME280;46518;48.842;8.926;2023-07-31T03:52:36;97070.84;;;16.37;72.33
1401;BME280;46518;48.842;8.926;2023-07-31T03:55:05;97054.19;;;16.27;71.87
1401;BME280;46518;48.842;8.926;2023-07-31T03:57:33;97070.03;;;16.37;71.77
1401;BME280;46518;48.842;8.926;2023-07-31T04:00:03;97069.34;;;16.26;72.47
1401;BME280;46518;48.842;8.926;2023-07-31T04:02:37;97064.72;;;16.37;72.00
1401;BME280;46518;48.842;8.926;2023-07-31T04:05:06;97069.16;;;16.42;71.54
1401;BME280;46518;48.842;8.926;2023-07-31T04:07:35;97070.25;;;16.16;72.00
1401;BME280;46518;48.842;8.926;2023-07-31T04:10:03;97065.25;;;16.15;72.73
1401;BME280;46518;48.842;8.926;2023-07-31T04:12:32;97067.19;;;16.04;72.86
1401;BME280;46518;48.842;8.926;2023-07-31T04:15:00;97073.63;;;16.22;73.18
1401;BME280;46518;48.842;8.926;2023-07-31T04:17:31;97061.72;;;16.20;72.63
1401;BME280;46518;48.842;8.926;2023-07-31T04:19:59;97059.31;;;16.23;72.51
1401;BME280;46518;48.842;8.926;2023-07-31T04:22:27;97061.88;;;16.04;73.59
1401;BME280;46518;48.842;8.926;2023-07-31T04:24:56;97066.81;;;16.16;73.45
1401;BME280;46518;48.842;8.926;2023-07-31T04:27:24;97069.47;;;16.16;73.63
1401;BME280;46518;48.842;8.926;2023-07-31T04:29:53;97068.44;;;16.36;72.98
1401;BME280;46518;48.842;8.926;2023-07-31T04:32:21;97061.38;;;16.26;72.74
1401;BME280;46518;48.842;8.926;2023-07-31T04:34:50;97071.75;;;16.28;73.12
1401;BME280;46518;48.842;8.926;2023-07-31T04:37:19;97067.59;;;16.16;73.54
1401;BME280;46518;48.842;8.926;2023-07-31T04:39:47;97064.63;;;16.23;73.60
1401;BME280;46518;48.842;8.926;2023-07-31T04:42:15;97060.16;;;16.43;73.05
1401;BME280;46518;48.842;8.926;2023-07-31T04:44:44;97059.41;;;16.13;73.76
1401;BME280;46518;48.842;8.926;2023-07-31T04:47:12;97056.59;;;16.28;73.36
1401;BME280;46518;48.842;8.926;2023-07-31T04:49:43;97068.66;;;16.39;72.94
1401;BME280;46518;48.842;8.926;2023-07-31T04:52:13;97068.06;;;16.48;72.15
1401;BME280;46518;48.842;8.926;2023-07-31T04:54:41;97069.72;;;16.63;72.41
1401;BME280;46518;48.842;8.926;2023-07-31T04:57:09;97061.47;;;16.64;72.07
1401;BME280;46518;48.842;8.926;2023-07-31T04:59:39;97059.22;;;16.52;71.68
1401;BME280;46518;48.842;8.926;2023-07-31T05:02:08;97051.03;;;16.49;72.21
1401;BME280;46518;48.842;8.926;2023-07-31T05:04:36;97065.53;;;16.56;72.19
1401;BME280;46518;48.842;8.926;2023-07-31T05:07:05;97054.06;;;16.61;72.02
1401;BME280;46518;48.842;8.926;2023-07-31T05:09:35;97046.75;;;16.72;71.77
1401;BME280;46518;48.842;8.926;2023-07-31T05:12:05;97048.31;;;16.54;71.54
1401;BME280;46518;48.842;8.926;2023-07-31T05:14:33;97055.94;;;16.60;71.90
1401;BME280;46518;48.842;8.926;2023-07-31T05:17:01;97049.69;;;16.70;71.56
1401;BME280;46518;48.842;8.926;2023-07-31T05:19:30;97054.50;;;16.68;71.63
1401;BME280;46518;48.842;8.926;2023-07-31T05:21:58;97050.38;;;16.57;71.51
1401;BME280;46518;48.842;8.926;2023-07-31T05:24:27;97047.91;;;16.42;72.59
1401;BME280;46518;48.842;8.926;2023-07-31T05:26:56;97054.50;;;16.68;72.19
1401;BME280;46518;48.842;8.926;2023-07-31T05:29:24;97056.22;;;16.59;72.66
1401;BME280;46518;48.842;8.926;2023-07-31T05:31:53;97057.69;;;16.46;72.73
1401;BME280;46518;48.842;8.926;2023-07-31T05:34:21;97057.50;;;16.43;72.99
1401;BME280;46518;48.842;8.926;2023-07-31T05:36:49;97048.66;;;16.47;73.45
1401;BME280;46518;48.842;8.926;2023-07-31T05:39:18;97052.25;;;16.56;73.32
1401;BME280;46518;48.842;8.926;2023-07-31T05:41:47;97048.88;;;16.51;72.81
1401;BME280;46518;48.842;8.926;2023-07-31T05:44:17;97048.81;;;16.56;72.79
1401;BME280;46518;48.842;8.926;2023-07-31T05:46:45;97054.66;;;16.58;72.82
1401;BME280;46518;48.842;8.926;2023-07-31T05:49:13;97050.19;;;16.72;73.01
1401;BME280;46518;48.842;8.926;2023-07-31T05:51:41;97045.59;;;16.59;72.06
1401;BME280;46518;48.842;8.926;2023-07-31T05:54:10;97044.84;;;16.77;72.72
1401;BME280;46518;48.842;8.926;2023-07-31T05:56:38;97047.94;;;16.85;71.51
1401;BME280;46518;48.842;8.926;2023-07-31T05:59:08;97049.19;;;16.68;72.40
1401;BME280;46518;48.842;8.926;2023-07-31T06:01:38;97055.41;;;16.83;72.42
1401;BME280;46518;48.842;8.926;2023-07-31T06:04:06;97054.13;;;16.99;72.06
1401;BME280;46518;48.842;8.926;2023-07-31T06:06:35;97043.91;;;16.87;71.58
1401;BME280;46518;48.842;8.926;2023-07-31T06:09:04;97042.97;;;16.97;71.84
1401;BME280;46518;48.842;8.926;2023-07-31T06:11:32;97043.03;;;16.92;71.30
1401;BME280;46518;48.842;8.926;2023-07-31T06:14:00;97046.44;;;16.97;71.71
1401;BME280;46518;48.842;8.926;2023-07-31T06:16:29;97048.72;;;17.04;71.42
1401;BME280;46518;48.842;8.926;2023-07-31T06:18:58;97051.06;;;17.24;71.03
1401;BME280;46518;48.842;8.926;2023-07-31T06:21:27;97042.44;;;17.33;70.34
1401;BME280;46518;48.842;8.926;2023-07-31T06:23:56;97041.41;;;17.48;70.56
1401;BME280;46518;48.842;8.926;2023-07-31T06:26:25;97032.50;;;17.71;69.63
1401;BME280;46518;48.842;8.926;2023-07-31T06:28:53;97049.47;;;17.75;69.12
1401;BME280;46518;48.842;8.926;2023-07-31T06:31:21;97036.94;;;17.76;67.65
1401;BME280;46518;48.842;8.926;2023-07-31T06:33:51;97036.03;;;17.66;67.61
1401;BME280;46518;48.842;8.926;2023-07-31T06:36:21;97032.88;;;17.97;66.97
1401;BME280;46518;48.842;8.926;2023-07-31T06:38:49;97035.81;;;18.23;67.49
1401;BME280;46518;48.842;8.926;2023-07-31T06:41:17;97037.22;;;18.35;66.78
1401;BME280;46518;48.842;8.926;2023-07-31T06:43:46;97043.72;;;18.42;66.81
1401;BME280;46518;48.842;8.926;2023-07-31T06:46:14;97038.56;;;18.60;67.16
1401;BME280;46518;48.842;8.926;2023-07-31T06:48:43;97041.31;;;18.68;66.54
1401;BME280;46518;48.842;8.926;2023-07-31T06:51:11;97048.63;;;18.63;65.67
1401;BME280;46518;48.842;8.926;2023-07-31T06:53:41;97044.00;;;18.82;65.55
1401;BME280;46518;48.842;8.926;2023-07-31T06:56:12;97046.53;;;18.87;64.96
1401;BME280;46518;48.842;8.926;2023-07-31T06:58:40;97040.00;;;18.93;64.78
1401;BME280;46518;48.842;8.926;2023-07-31T07:01:08;97034.72;;;18.80;64.21
1401;BME280;46518;48.842;8.926;2023-07-31T07:03:37;97032.81;;;18.66;65.08
1401;BME280;46518;48.842;8.926;2023-07-31T07:06:05;97030.44;;;18.92;65.65
1401;BME280;46518;48.842;8.926;2023-07-31T07:08:33;97032.66;;;18.99;64.86
1401;BME280;46518;48.842;8.926;2023-07-31T07:11:03;97029.97;;;19.13;64.90
1401;BME280;46518;48.842;8.926;2023-07-31T07:13:31;97020.28;;;19.17;63.75
1401;BME280;46518;48.842;8.926;2023-07-31T07:16:00;97018.06;;;19.19;63.70
1401;BME280;46518;48.842;8.926;2023-07-31T07:18:28;97016.00;;;19.38;64.01
1401;BME280;46518;48.842;8.926;2023-07-31T07:20:56;97019.44;;;19.39;63.63
1401;BME280;46518;48.842;8.926;2023-07-31T07:23:25;97021.72;;;19.23;62.60
1401;BME280;46518;48.842;8.926;2023-07-31T07:25:53;97019.56;;;19.11;62.87
1401;BME280;46518;48.842;8.926;2023-07-31T07:28:23;97015.38;;;19.19;62.43
1401;BME280;46518;48.842;8.926;2023-07-31T07:30:51;97007.22;;;19.38;62.27
1401;BME280;46518;48.842;8.926;2023-07-31T07:33:21;97014.66;;;19.50;62.03
1401;BME280;46518;48.842;8.926;2023-07-31T07:35:49;97015.09;;;19.43;61.72
1401;BME280;46518;48.842;8.926;2023-07-31T07:38:17;97006.69;;;19.27;61.52
1401;BME280;46518;48.842;8.926;2023-07-31T07:40:46;97006.22;;;19.34;62.13
1401;BME280;46518;48.842;8.926;2023-07-31T07:43:17;97014.97;;;19.26;62.36
1401;BME280;46518;48.842;8.926;2023-07-31T07:45:47;97017.28;;;19.41;62.75
1401;BME280;46518;48.842;8.926;2023-07-31T07:48:15;97001.22;;;19.32;63.46
1401;BME280;46518;48.842;8.926;2023-07-31T07:50:44;97006.06;;;19.61;63.30
1401;BME280;46518;48.842;8.926;2023-07-31T07:53:12;97002.25;;;19.76;63.54
1401;BME280;46518;48.842;8.926;2023-07-31T07:55:40;97010.72;;;19.70;61.44
1401;BME280;46518;48.842;8.926;2023-07-31T07:58:08;97006.31;;;19.74;61.65
1401;BME280;46518;48.842;8.926;2023-07-31T08:00:36;97008.16;;;19.96;61.70
1401;BME280;46518;48.842;8.926;2023-07-31T08:03:06;97018.19;;;19.90;62.08
1401;BME280;46518;48.842;8.926;2023-07-31T08:05:34;96994.75;;;19.56;61.18
1401;BME280;46518;48.842;8.926;2023-07-31T08:08:03;97004.19;;;19.85;62.66
1401;BME280;46518;48.842;8.926;2023-07-31T08:10:31;97001.41;;;19.98;61.40
1401;BME280;46518;48.842;8.926;2023-07-31T08:12:59;96995.44;;;19.93;60.23
1401;BME280;46518;48.842;8.926;2023-07-31T08:15:27;96993.34;;;20.30;61.64
1401;BME280;46518;48.842;8.926;2023-07-31T08:17:55;97004.31;;;20.19;60.94
1401;BME280;46518;48.842;8.926;2023-07-31T08:20:26;96999.47;;;20.39;59.07
1401;BME280;46518;48.842;8.926;2023-07-31T08:22:54;96998.53;;;19.86;59.22
1401;BME280;46518;48.842;8.926;2023-07-31T08:25:23;96996.66;;;19.87;60.60
1401;BME280;46518;48.842;8.926;2023-07-31T08:27:51;96996.56;;;20.09;60.78
1401;BME280;46518;48.842;8.926;2023-07-31T08:30:20;97001.16;;;20.17;59.42
1401;BME280;46518;48.842;8.926;2023-07-31T08:32:49;96993.94;;;20.18;58.72
1401;BME280;46518;48.842;8.926;2023-07-31T08:35:17;96986.13;;;20.39;59.29
1401;BME280;46518;48.842;8.926;2023-07-31T08:37:47;96997.34;;;20.58;58.89
1401;BME280;46518;48.842;8.926;2023-07-31T08:40:15;96989.31;;;20.58;58.23
1401;BME280;46518;48.842;8.926;2023-07-31T08:42:44;96989.97;;;20.73;58.84
1401;BME280;46518;48.842;8.926;2023-07-31T08:45:14;96980.13;;;20.33;58.37
1401;BME280;46518;48.842;8.926;2023-07-31T08:47:44;96987.53;;;20.28;58.69
1401;BME280;46518;48.842;8.926;2023-07-31T08:50:15;96987.66;;;20.22;59.57
1401;BME280;46518;48.842;8.926;2023-07-31T08:52:45;96990.34;;;20.22;59.07
1401;BME280;46518;48.842;8.926;2023-07-31T08:55:15;96984.38;;;20.25;57.89
1401;BME280;46518;48.842;8.926;2023-07-31T08:57:43;96981.88;;;20.38;58.91
1401;BME280;46518;48.842;8.926;2023-07-31T09:00:14;96967.44;;;20.47;58.28
1401;BME280;46518;48.842;8.926;2023-07-31T09:02:45;96958.16;;;20.45;57.62
1401;BME280;46518;48.842;8.926;2023-07-31T09:05:14;96961.50;;;20.59;58.36
1401;BME280;46518;48.842;8.926;2023-07-31T09:07:45;96959.13;;;20.66;58.19
1401;BME280;46518;48.842;8.926;2023-07-31T09:10:16;96967.44;;;20.47;58.37
1401;BME280;46518;48.842;8.926;2023-07-31T09:12:45;96963.22;;;20.55;57.64
1401;BME280;46518;48.842;8.926;2023-07-31T09:15:14;96969.94;;;20.35;57.46
1401;BME280;46518;48.842;8.926;2023-07-31T09:18:03;96962.16;;;20.16;57.66
1401;BME280;46518;48.842;8.926;2023-07-31T09:20:32;96954.97;;;20.25;58.22
1401;BME280;46518;48.842;8.926;2023-07-31T09:23:08;96967.78;;;20.55;58.75
1401;BME280;46518;48.842;8.926;2023-07-31T09:25:39;96969.53;;;20.77;58.37
1401;BME280;46518;48.842;8.926;2023-07-31T09:28:09;96967.81;;;20.72;57.88
1401;BME280;46518;48.842;8.926;2023-07-31T09:30:47;96958.66;;;20.73;58.21
1401;BME280;46518;48.842;8.926;2023-07-31T09:33:17;96951.25;;;20.79;57.98
1401;BME280;46518;48.842;8.926;2023-07-31T09:35:47;96950.63;;;20.90;57.68
1401;BME280;46518;48.842;8.926;2023-07-31T09:38:16;96944.16;;;20.92;57.57
1401;BME280;46518;48.842;8.926;2023-07-31T09:40:47;96945.75;;;20.66;58.34
1401;BME280;46518;48.842;8.926;2023-07-31T09:43:18;96936.03;;;20.79;58.46
1401;BME280;46518;48.842;8.926;2023-07-31T09:45:47;96925.63;;;20.78;57.42
1401;BME280;46518;48.842;8.926;2023-07-31T09:48:16;96917.13;;;20.76;58.83
1401;BME280;46518;48.842;8.926;2023-07-31T09:50:46;96916.81;;;20.86;59.33
1401;BME280;46518;48.842;8.926;2023-07-31T09:53:15;96923.09;;;20.90;59.99
1401;BME280;46518;48.842;8.926;2023-07-31T09:55:44;96916.81;;;20.68;57.37
1401;BME280;46518;48.842;8.926;2023-07-31T09:58:13;96921.69;;;20.84;56.21
1401;BME280;46518;48.842;8.926;2023-07-31T10:00:41;96924.81;;;20.86;56.58
1401;BME280;46518;48.842;8.926;2023-07-31T10:03:10;96918.84;;;20.80;55.68
1401;BME280;46518;48.842;8.926;2023-07-31T10:05:42;96916.81;;;20.86;57.59
1401;BME280;46518;48.842;8.926;2023-07-31T10:08:13;96912.41;;;20.81;54.56
1401;BME280;46518;48.842;8.926;2023-07-31T10:10:42;96905.16;;;20.99;55.48
1401;BME280;46518;48.842;8.926;2023-07-31T10:13:15;96907.00;;;21.16;56.44
1401;BME280;46518;48.842;8.926;2023-07-31T10:15:43;96898.81;;;21.13;55.46
1401;BME280;46518;48.842;8.926;2023-07-31T10:18:12;96888.03;;;21.47;56.44
1401;BME280;46518;48.842;8.926;2023-07-31T10:20:41;96892.56;;;21.56;54.17
1401;BME280;46518;48.842;8.926;2023-07-31T10:23:09;96887.78;;;21.70;54.42
1401;BME280;46518;48.842;8.926;2023-07-31T10:25:38;96884.34;;;21.61;53.59
1401;BME280;46518;48.842;8.926;2023-07-31T10:28:08;96883.16;;;21.79;54.27
1401;BME280;46518;48.842;8.926;2023-07-31T10:30:39;96881.28;;;21.80;56.72
1401;BME280;46518;48.842;8.926;2023-07-31T10:33:07;96876.78;;;21.92;54.97
1401;BME280;46518;48.842;8.926;2023-07-31T10:35:36;96874.19;;;22.05;55.34
1401;BME280;46518;48.842;8.926;2023-07-31T10:38:10;96879.59;;;21.96;51.43
1401;BME280;46518;48.842;8.926;2023-07-31T10:40:39;96874.09;;;21.92;52.67
1401;BME280;46518;48.842;8.926;2023-07-31T10:43:08;96883.00;;;22.05;53.29
1401;BME280;46518;48.842;8.926;2023-07-31T10:45:42;96884.84;;;22.13;52.37
1401;BME280;46518;48.842;8.926;2023-07-31T10:48:13;96884.16;;;22.25;50.03
1401;BME280;46518;48.842;8.926;2023-07-31T10:50:47;96875.53;;;22.40;51.79
1401;BME280;46518;48.842;8.926;2023-07-31T10:53:23;96881.22;;;22.39;51.39
1401;BME280;46518;48.842;8.926;2023-07-31T10:55:52;96876.88;;;22.05;50.47
1401;BME280;46518;48.842;8.926;2023-07-31T10:58:21;96868.44;;;22.15;52.18
1401;BME280;46518;48.842;8.926;2023-07-31T11:00:56;96865.47;;;22.08;51.29
1401;BME280;46518;48.842;8.926;2023-07-31T11:03:26;96862.13;;;22.40;52.77
1401;BME280;46518;48.842;8.926;2023-07-31T11:06:00;96873.91;;;22.27;50.83
1401;BME280;46518;48.842;8.926;2023-07-31T11:08:32;96867.31;;;22.16;49.78
1401;BME280;46518;48.842;8.926;2023-07-31T11:11:08;96867.31;;;22.16;52.46
1401;BME280;46518;48.842;8.926;2023-07-31T11:13:41;96869.69;;;22.17;51.47
1401;BME280;46518;48.842;8.926;2023-07-31T11:16:12;96868.28;;;22.20;50.04
1401;BME280;46518;48.842;8.926;2023-07-31T11:18:42;96865.59;;;22.11;52.94
1401;BME280;46518;48.842;8.926;2023-07-31T11:21:12;96863.38;;;22.22;54.47
1401;BME280;46518;48.842;8.926;2023-07-31T11:23:41;96869.84;;;21.91;50.31
1401;BME280;46518;48.842;8.926;2023-07-31T11:26:09;96866.53;;;21.65;50.67
1401;BME280;46518;48.842;8.926;2023-07-31T11:28:37;96857.63;;;21.82;52.26
1401;BME280;46518;48.842;8.926;2023-07-31T11:31:08;96850.09;;;21.75;51.65
1401;BME280;46518;48.842;8.926;2023-07-31T11:33:38;96849.63;;;21.73;51.91
1401;BME280;46518;48.842;8.926;2023-07-31T11:36:14;96855.66;;;21.91;53.25
1401;BME280;46518;48.842;8.926;2023-07-31T11:38:42;96828.06;;;21.69;51.44
1401;BME280;46518;48.842;8.926;2023-07-31T11:41:14;96851.94;;;21.83;51.63
1401;BME280;46518;48.842;8.926;2023-07-31T11:43:42;96844.72;;;21.75;53.42
1401;BME280;46518;48.842;8.926;2023-07-31T11:46:10;96852.13;;;21.78;52.79
1401;BME280;46518;48.842;8.926;2023-07-31T11:48:40;96848.56;;;21.95;53.00
1401;BME280;46518;48.842;8.926;2023-07-31T11:51:10;96842.88;;;22.17;52.19
1401;BME280;46518;48.842;8.926;2023-07-31T11:53:41;96839.06;;;21.97;51.20
1401;BME280;46518;48.842;8.926;2023-07-31T11:56:13;96829.66;;;22.12;51.20
1401;BME280;46518;48.842;8.926;2023-07-31T11:58:45;96828.44;;;22.10;52.74
1401;BME280;46518;48.842;8.926;2023-07-31T12:01:15;96835.75;;;21.71;50.24
1401;BME280;46518;48.842;8.926;2023-07-31T12:03:51;96827.81;;;21.83;52.61
1401;BME280;46518;48.842;8.926;2023-07-31T12:06:20;96821.25;;;22.02;52.76
1401;BME280;46518;48.842;8.926;2023-07-31T12:08:48;96828.22;;;21.94;52.00
1401;BME280;46518;48.842;8.926;2023-07-31T12:11:16;96833.22;;;22.04;52.42
1401;BME280;46518;48.842;8.926;2023-07-31T12:13:45;96825.28;;;22.08;51.65
1401;BME280;46518;48.842;8.926;2023-07-31T12:16:13;96822.50;;;22.25;52.30
1401;BME280;46518;48.842;8.926;2023-07-31T12:18:41;96824.44;;;22.16;52.08
1401;BME280;46518;48.842;8.926;2023-07-31T12:21:10;96802.84;;;21.91;50.92
1401;BME280;46518;48.842;8.926;2023-07-31T12:23:40;96799.94;;;22.26;52.07
1401;BME280;46518;48.842;8.926;2023-07-31T12:26:11;96797.13;;;22.23;52.58
1401;BME280;46518;48.842;8.926;2023-07-31T12:28:41;96785.53;;;22.10;50.81
1401;BME280;46518;48.842;8.926;2023-07-31T12:31:11;96791.03;;;22.13;52.70
1401;BME280;46518;48.842;8.926;2023-07-31T12:33:40;96786.31;;;22.31;51.35
1401;BME280;46518;48.842;8.926;2023-07-31T12:36:11;96787.78;;;22.62;50.59
1401;BME280;46518;48.842;8.926;2023-07-31T12:38:39;96785.56;;;22.64;48.87
1401;BME280;46518;48.842;8.926;2023-07-31T12:41:08;96781.44;;;22.67;49.46
1401;BME280;46518;48.842;8.926;2023-07-31T12:43:37;96778.78;;;22.79;49.53
1401;BME280;46518;48.842;8.926;2023-07-31T12:46:06;96781.53;;;22.70;49.60
1401;BME280;46518;48.842;8.926;2023-07-31T12:48:35;96763.94;;;23.06;49.22
1401;BME280;46518;48.842;8.926;2023-07-31T12:51:03;96770.53;;;23.21;48.83
1401;BME280;46518;48.842;8.926;2023-07-31T12:53:35;96765.84;;;23.30;49.35
1401;BME280;46518;48.842;8.926;2023-07-31T12:56:03;96757.69;;;23.27;50.52
1401;BME280;46518;48.842;8.926;2023-07-31T12:58:31;96754.66;;;23.40;51.80
1401;BME280;46518;48.842;8.926;2023-07-31T13:00:59;96755.78;;;23.52;50.15
1401;BME280;46518;48.842;8.926;2023-07-31T13:03:29;96751.41;;;23.59;49.53
1401;BME280;46518;48.842;8.926;2023-07-31T13:05:57;96754.31;;;23.42;49.87
1401;BME280;46518;48.842;8.926;2023-07-31T13:08:25;96749.06;;;23.21;48.78
1401;BME280;46518;48.842;8.926;2023-07-31T13:10:55;96756.78;;;23.22;49.79
1401;BME280;46518;48.842;8.926;2023-07-31T13:13:23;96748.16;;;22.92;50.26
1401;BME280;46518;48.842;8.926;2023-07-31T13:15:51;96745.38;;;23.13;51.75
1401;BME280;46518;48.842;8.926;2023-07-31T13:18:18;96741.00;;;23.09;50.31
1401;BME280;46518;48.842;8.926;2023-07-31T13:20:46;96730.94;;;23.06;50.22